East Springfield, New York
Current Conditions -  °F | °C
As of 6:35 PM on Thursday 18 Dec 2014 (Local Time) from KNY0 Reporting Station
Overcast Overcast  
Wind Chill: 20°   Ceiling: 1300
Heat Index: 29°   Visibility: 10mi
Dew Point: 25°   Wind: 10mph
Humidity: 84%   Direction: 280°W
Pressure: 29.95"   Gusts: 20mph
Location:  42.83°N, 74.82°W
Report Text: KNY0 182335Z AUTO 28009G17KT 260V320 10SM OVC013 M02/M04 A2995 RMK AO2 T10181041
Loading
Personal Weather Stations






























Interactive Weather Map New forecast layout! Learn more

10-Day Weather Forecast

Advertisements
Track Severe Weather on mobile